sensor_id;sensor_type;location;lat;lon;timestamp;P1;durP1;ratioP1;P2;durP2;ratioP2
35961;SDS011;22044;48.298;10.008;2024-03-23T00:55:50;5.23;;;4.43;;
35961;SDS011;22044;48.298;10.008;2024-03-23T00:58:36;6.77;;;4.57;;
35961;SDS011;22044;48.298;10.008;2024-03-23T01:01:20;5.40;;;4.33;;
35961;SDS011;22044;48.298;10.008;2024-03-23T01:04:06;5.47;;;4.00;;
35961;SDS011;22044;48.298;10.008;2024-03-23T01:06:50;4.97;;;4.47;;
35961;SDS011;22044;48.298;10.008;2024-03-23T01:09:37;5.33;;;4.67;;
35961;SDS011;22044;48.298;10.008;2024-03-23T01:12:23;6.80;;;5.10;;
35961;SDS011;22044;48.298;10.008;2024-03-23T01:15:08;6.40;;;4.50;;
35961;SDS011;22044;48.298;10.008;2024-03-23T01:17:54;8.20;;;4.97;;
35961;SDS011;22044;48.298;10.008;2024-03-23T01:20:39;5.17;;;4.10;;
35961;SDS011;22044;48.298;10.008;2024-03-23T01:23:25;6.77;;;4.77;;
35961;SDS011;22044;48.298;10.008;2024-03-23T01:26:11;6.47;;;5.25;;
35961;SDS011;22044;48.298;10.008;2024-03-23T01:28:57;7.67;;;4.60;;
35961;SDS011;22044;48.298;10.008;2024-03-23T01:31:41;5.87;;;4.80;;
35961;SDS011;22044;48.298;10.008;2024-03-23T01:34:27;5.30;;;4.80;;
35961;SDS011;22044;48.298;10.008;2024-03-23T01:37:11;8.40;;;4.50;;
35961;SDS011;22044;48.298;10.008;2024-03-23T01:39:57;7.00;;;4.57;;
35961;SDS011;22044;48.298;10.008;2024-03-23T01:42:43;7.80;;;4.40;;
35961;SDS011;22044;48.298;10.008;2024-03-23T01:45:41;5.87;;;4.10;;
35961;SDS011;22044;48.298;10.008;2024-03-23T01:48:26;5.57;;;3.93;;
35961;SDS011;22044;48.298;10.008;2024-03-23T01:51:12;4.43;;;4.03;;
35961;SDS011;22044;48.298;10.008;2024-03-23T01:53:58;6.37;;;4.67;;
35961;SDS011;22044;48.298;10.008;2024-03-23T01:56:44;5.23;;;4.10;;
35961;SDS011;22044;48.298;10.008;2024-03-23T01:59:32;8.40;;;4.40;;
35961;SDS011;22044;48.298;10.008;2024-03-23T02:02:17;4.53;;;4.07;;
35961;SDS011;22044;48.298;10.008;2024-03-23T02:05:04;6.57;;;4.70;;
35961;SDS011;22044;48.298;10.008;2024-03-23T02:07:48;5.27;;;3.80;;
35961;SDS011;22044;48.298;10.008;2024-03-23T02:10:35;4.83;;;4.30;;
35961;SDS011;22044;48.298;10.008;2024-03-23T02:13:20;6.43;;;4.50;;
35961;SDS011;22044;48.298;10.008;2024-03-23T02:16:07;5.43;;;4.40;;
35961;SDS011;22044;48.298;10.008;2024-03-23T02:18:54;4.87;;;4.37;;
35961;SDS011;22044;48.298;10.008;2024-03-23T02:21:39;5.90;;;4.40;;
35961;SDS011;22044;48.298;10.008;2024-03-23T02:24:25;5.27;;;4.50;;
35961;SDS011;22044;48.298;10.008;2024-03-23T02:27:12;5.23;;;4.70;;
35961;SDS011;22044;48.298;10.008;2024-03-23T02:29:57;4.90;;;4.17;;
35961;SDS011;22044;48.298;10.008;2024-03-23T02:32:45;6.53;;;4.60;;
35961;SDS011;22044;48.298;10.008;2024-03-23T02:35:30;5.10;;;4.20;;
35961;SDS011;22044;48.298;10.008;2024-03-23T02:38:15;5.37;;;4.27;;
35961;SDS011;22044;48.298;10.008;2024-03-23T02:41:04;5.47;;;4.07;;
35961;SDS011;22044;48.298;10.008;2024-03-23T02:43:51;5.03;;;4.40;;
35961;SDS011;22044;48.298;10.008;2024-03-23T02:46:35;4.77;;;4.33;;
35961;SDS011;22044;48.298;10.008;2024-03-23T02:49:21;4.33;;;3.90;;
35961;SDS011;22044;48.298;10.008;2024-03-23T02:52:06;5.77;;;4.57;;
35961;SDS011;22044;48.298;10.008;2024-03-23T02:54:51;4.87;;;4.13;;
35961;SDS011;22044;48.298;10.008;2024-03-23T02:57:38;5.53;;;4.80;;
35961;SDS011;22044;48.298;10.008;2024-03-23T03:00:23;6.23;;;4.90;;
35961;SDS011;22044;48.298;10.008;2024-03-23T03:03:08;9.53;;;5.20;;
35961;SDS011;22044;48.298;10.008;2024-03-23T03:05:54;5.83;;;4.80;;
35961;SDS011;22044;48.298;10.008;2024-03-23T03:08:40;6.53;;;5.00;;
35961;SDS011;22044;48.298;10.008;2024-03-23T03:11:26;5.93;;;4.27;;
35961;SDS011;22044;48.298;10.008;2024-03-23T03:14:13;4.63;;;4.10;;
35961;SDS011;22044;48.298;10.008;2024-03-23T03:16:58;5.03;;;4.50;;
35961;SDS011;22044;48.298;10.008;2024-03-23T03:19:43;5.20;;;4.37;;
35961;SDS011;22044;48.298;10.008;2024-03-23T03:22:29;5.40;;;4.67;;
35961;SDS011;22044;48.298;10.008;2024-03-23T03:25:14;4.90;;;4.40;;
35961;SDS011;22044;48.298;10.008;2024-03-23T03:27:59;6.17;;;4.10;;
35961;SDS011;22044;48.298;10.008;2024-03-23T03:30:45;4.93;;;4.40;;
35961;SDS011;22044;48.298;10.008;2024-03-23T03:33:30;4.47;;;4.03;;
35961;SDS011;22044;48.298;10.008;2024-03-23T03:36:16;4.67;;;3.83;;
35961;SDS011;22044;48.298;10.008;2024-03-23T03:39:01;5.10;;;4.47;;
35961;SDS011;22044;48.298;10.008;2024-03-23T03:41:47;5.80;;;4.27;;
35961;SDS011;22044;48.298;10.008;2024-03-23T03:44:32;5.90;;;4.67;;
35961;SDS011;22044;48.298;10.008;2024-03-23T03:47:19;5.57;;;4.50;;
35961;SDS011;22044;48.298;10.008;2024-03-23T03:50:05;6.13;;;4.33;;
35961;SDS011;22044;48.298;10.008;2024-03-23T03:52:50;5.13;;;4.47;;
35961;SDS011;22044;48.298;10.008;2024-03-23T03:55:36;6.37;;;4.57;;
35961;SDS011;22044;48.298;10.008;2024-03-23T03:58:20;5.63;;;4.37;;
35961;SDS011;22044;48.298;10.008;2024-03-23T04:01:06;7.63;;;4.30;;
35961;SDS011;22044;48.298;10.008;2024-03-23T04:03:52;5.13;;;4.63;;
35961;SDS011;22044;48.298;10.008;2024-03-23T04:06:37;6.13;;;5.53;;
35961;SDS011;22044;48.298;10.008;2024-03-23T04:09:23;6.43;;;4.80;;
35961;SDS011;22044;48.298;10.008;2024-03-23T04:12:09;6.23;;;4.50;;
35961;SDS011;22044;48.298;10.008;2024-03-23T04:14:53;5.30;;;4.30;;
35961;SDS011;22044;48.298;10.008;2024-03-23T04:17:39;5.07;;;4.40;;
35961;SDS011;22044;48.298;10.008;2024-03-23T04:20:28;5.57;;;4.47;;
35961;SDS011;22044;48.298;10.008;2024-03-23T04:23:13;5.57;;;4.33;;
35961;SDS011;22044;48.298;10.008;2024-03-23T04:26:02;5.60;;;5.00;;
35961;SDS011;22044;48.298;10.008;2024-03-23T04:28:49;5.77;;;4.37;;
35961;SDS011;22044;48.298;10.008;2024-03-23T04:31:33;6.23;;;4.50;;
35961;SDS011;22044;48.298;10.008;2024-03-23T04:34:19;6.27;;;4.77;;
35961;SDS011;22044;48.298;10.008;2024-03-23T04:37:06;6.20;;;4.13;;
35961;SDS011;22044;48.298;10.008;2024-03-23T04:39:52;5.53;;;4.43;;
35961;SDS011;22044;48.298;10.008;2024-03-23T04:42:38;5.10;;;4.60;;
35961;SDS011;22044;48.298;10.008;2024-03-23T04:45:23;4.87;;;4.37;;
35961;SDS011;22044;48.298;10.008;2024-03-23T04:48:09;5.77;;;4.37;;
35961;SDS011;22044;48.298;10.008;2024-03-23T04:50:55;4.83;;;4.27;;
35961;SDS011;22044;48.298;10.008;2024-03-23T04:53:43;6.00;;;4.80;;
35961;SDS011;22044;48.298;10.008;2024-03-23T04:56:29;4.83;;;3.93;;
35961;SDS011;22044;48.298;10.008;2024-03-23T04:59:15;6.33;;;4.83;;
35961;SDS011;22044;48.298;10.008;2024-03-23T05:02:00;6.03;;;4.93;;
35961;SDS011;22044;48.298;10.008;2024-03-23T05:04:46;6.27;;;4.50;;
35961;SDS011;22044;48.298;10.008;2024-03-23T05:07:31;5.27;;;4.07;;
35961;SDS011;22044;48.298;10.008;2024-03-23T05:10:18;6.03;;;4.33;;
35961;SDS011;22044;48.298;10.008;2024-03-23T05:13:03;4.33;;;3.93;;
35961;SDS011;22044;48.298;10.008;2024-03-23T05:15:51;4.27;;;3.83;;
35961;SDS011;22044;48.298;10.008;2024-03-23T05:18:36;4.87;;;4.27;;
35961;SDS011;22044;48.298;10.008;2024-03-23T05:21:21;5.07;;;4.17;;
35961;SDS011;22044;48.298;10.008;2024-03-23T05:24:06;4.37;;;3.97;;
35961;SDS011;22044;48.298;10.008;2024-03-23T05:26:53;5.00;;;3.97;;
35961;SDS011;22044;48.298;10.008;2024-03-23T05:29:37;4.60;;;3.37;;
35961;SDS011;22044;48.298;10.008;2024-03-23T05:32:23;4.07;;;3.67;;
35961;SDS011;22044;48.298;10.008;2024-03-23T05:35:08;5.63;;;4.47;;
35961;SDS011;22044;48.298;10.008;2024-03-23T05:37:54;4.63;;;3.60;;
35961;SDS011;22044;48.298;10.008;2024-03-23T05:40:38;4.80;;;3.33;;
35961;SDS011;22044;48.298;10.008;2024-03-23T05:43:26;4.40;;;3.93;;
35961;SDS011;22044;48.298;10.008;2024-03-23T05:46:11;4.13;;;3.73;;
35961;SDS011;22044;48.298;10.008;2024-03-23T05:48:57;4.43;;;3.97;;
35961;SDS011;22044;48.298;10.008;2024-03-23T05:51:46;6.17;;;3.80;;
35961;SDS011;22044;48.298;10.008;2024-03-23T05:54:31;5.70;;;4.10;;
35961;SDS011;22044;48.298;10.008;2024-03-23T05:57:16;10.97;;;4.27;;
35961;SDS011;22044;48.298;10.008;2024-03-23T06:00:04;4.77;;;3.87;;
35961;SDS011;22044;48.298;10.008;2024-03-23T06:02:55;5.33;;;3.87;;
35961;SDS011;22044;48.298;10.008;2024-03-23T06:05:41;6.17;;;4.13;;
35961;SDS011;22044;48.298;10.008;2024-03-23T06:08:26;4.50;;;4.00;;
35961;SDS011;22044;48.298;10.008;2024-03-23T06:11:12;5.23;;;4.60;;
35961;SDS011;22044;48.298;10.008;2024-03-23T06:13:57;4.13;;;3.73;;
35961;SDS011;22044;48.298;10.008;2024-03-23T06:16:43;4.37;;;3.97;;
35961;SDS011;22044;48.298;10.008;2024-03-23T06:19:28;4.97;;;4.13;;
35961;SDS011;22044;48.298;10.008;2024-03-23T06:22:15;4.13;;;3.73;;
35961;SDS011;22044;48.298;10.008;2024-03-23T06:25:00;4.30;;;3.90;;
35961;SDS011;22044;48.298;10.008;2024-03-23T06:27:45;4.33;;;3.93;;
35961;SDS011;22044;48.298;10.008;2024-03-23T06:30:30;4.20;;;3.77;;
35961;SDS011;22044;48.298;10.008;2024-03-23T06:33:17;5.30;;;3.83;;
35961;SDS011;22044;48.298;10.008;2024-03-23T06:36:03;5.33;;;4.43;;
35961;SDS011;22044;48.298;10.008;2024-03-23T06:38:48;5.53;;;4.07;;
35961;SDS011;22044;48.298;10.008;2024-03-23T06:41:35;3.90;;;3.50;;
35961;SDS011;22044;48.298;10.008;2024-03-23T06:44:20;6.03;;;4.30;;
35961;SDS011;22044;48.298;10.008;2024-03-23T06:47:05;5.33;;;4.83;;
35961;SDS011;22044;48.298;10.008;2024-03-23T06:49:52;5.40;;;4.80;;
35961;SDS011;22044;48.298;10.008;2024-03-23T06:52:37;6.03;;;5.30;;
35961;SDS011;22044;48.298;10.008;2024-03-23T06:55:21;6.20;;;5.60;;
35961;SDS011;22044;48.298;10.008;2024-03-23T06:58:08;6.30;;;4.00;;
35961;SDS011;22044;48.298;10.008;2024-03-23T07:00:53;6.17;;;4.00;;
35961;SDS011;22044;48.298;10.008;2024-03-23T07:03:39;3.73;;;2.90;;
35961;SDS011;22044;48.298;10.008;2024-03-23T07:06:25;3.27;;;2.33;;
35961;SDS011;22044;48.298;10.008;2024-03-23T07:09:11;3.67;;;2.30;;
35961;SDS011;22044;48.298;10.008;2024-03-23T07:11:56;3.33;;;2.27;;
35961;SDS011;22044;48.298;10.008;2024-03-23T07:14:42;3.20;;;2.27;;
35961;SDS011;22044;48.298;10.008;2024-03-23T07:17:26;3.43;;;2.07;;
35961;SDS011;22044;48.298;10.008;2024-03-23T07:20:12;2.43;;;2.13;;
35961;SDS011;22044;48.298;10.008;2024-03-23T07:22:59;2.70;;;2.00;;
35961;SDS011;22044;48.298;10.008;2024-03-23T07:25:44;3.57;;;2.10;;
35961;SDS011;22044;48.298;10.008;2024-03-23T07:28:30;2.60;;;2.40;;
35961;SDS011;22044;48.298;10.008;2024-03-23T07:31:17;2.37;;;2.17;;
35961;SDS011;22044;48.298;10.008;2024-03-23T07:34:02;3.27;;;2.30;;
35961;SDS011;22044;48.298;10.008;2024-03-23T07:36:48;2.70;;;2.50;;
35961;SDS011;22044;48.298;10.008;2024-03-23T07:39:33;3.37;;;2.83;;
35961;SDS011;22044;48.298;10.008;2024-03-23T07:42:19;3.20;;;2.80;;
35961;SDS011;22044;48.298;10.008;2024-03-23T07:45:04;3.20;;;2.60;;
35961;SDS011;22044;48.298;10.008;2024-03-23T07:47:51;3.80;;;3.00;;
35961;SDS011;22044;48.298;10.008;2024-03-23T07:50:35;3.07;;;2.60;;
35961;SDS011;22044;48.298;10.008;2024-03-23T07:53:21;4.07;;;2.50;;
35961;SDS011;22044;48.298;10.008;2024-03-23T07:56:08;2.27;;;2.07;;
35961;SDS011;22044;48.298;10.008;2024-03-23T07:58:54;2.97;;;2.20;;
35961;SDS011;22044;48.298;10.008;2024-03-23T08:01:39;2.40;;;2.13;;
35961;SDS011;22044;48.298;10.008;2024-03-23T08:04:25;2.37;;;1.93;;
35961;SDS011;22044;48.298;10.008;2024-03-23T08:07:11;2.20;;;1.93;;
35961;SDS011;22044;48.298;10.008;2024-03-23T08:09:56;1.90;;;1.70;;
35961;SDS011;22044;48.298;10.008;2024-03-23T08:12:47;1.40;;;1.30;;
35961;SDS011;22044;48.298;10.008;2024-03-23T08:15:31;1.90;;;1.20;;
35961;SDS011;22044;48.298;10.008;2024-03-23T08:18:17;1.43;;;1.20;;
35961;SDS011;22044;48.298;10.008;2024-03-23T08:21:05;1.23;;;1.10;;
35961;SDS011;22044;48.298;10.008;2024-03-23T08:23:50;2.77;;;1.00;;
35961;SDS011;22044;48.298;10.008;2024-03-23T08:26:35;0.83;;;0.83;;
35961;SDS011;22044;48.298;10.008;2024-03-23T08:29:22;1.40;;;1.00;;
35961;SDS011;22044;48.298;10.008;2024-03-23T08:32:08;0.80;;;0.70;;
35961;SDS011;22044;48.298;10.008;2024-03-23T08:34:52;1.17;;;0.90;;
35961;SDS011;22044;48.298;10.008;2024-03-23T08:37:39;1.10;;;0.97;;
35961;SDS011;22044;48.298;10.008;2024-03-23T08:40:23;0.80;;;0.80;;
35961;SDS011;22044;48.298;10.008;2024-03-23T08:43:10;0.70;;;0.70;;
35961;SDS011;22044;48.298;10.008;2024-03-23T08:46:02;0.80;;;0.80;;
35961;SDS011;22044;48.298;10.008;2024-03-23T08:48:48;0.70;;;0.63;;
35961;SDS011;22044;48.298;10.008;2024-03-23T08:51:35;0.60;;;0.60;;
35961;SDS011;22044;48.298;10.008;2024-03-23T08:54:21;0.50;;;0.50;;
35961;SDS011;22044;48.298;10.008;2024-03-23T08:57:06;0.60;;;0.60;;
35961;SDS011;22044;48.298;10.008;2024-03-23T08:59:52;1.87;;;0.60;;
35961;SDS011;22044;48.298;10.008;2024-03-23T09:02:38;1.17;;;1.07;;
35961;SDS011;22044;48.298;10.008;2024-03-23T09:05:24;1.43;;;0.90;;
35961;SDS011;22044;48.298;10.008;2024-03-23T09:08:09;2.27;;;0.70;;
35961;SDS011;22044;48.298;10.008;2024-03-23T09:10:55;1.77;;;0.83;;
35961;SDS011;22044;48.298;10.008;2024-03-23T09:13:40;0.67;;;0.63;;
35961;SDS011;22044;48.298;10.008;2024-03-23T09:16:26;0.80;;;0.80;;
35961;SDS011;22044;48.298;10.008;2024-03-23T09:19:12;0.97;;;0.80;;
35961;SDS011;22044;48.298;10.008;2024-03-23T09:21:58;1.93;;;0.90;;
35961;SDS011;22044;48.298;10.008;2024-03-23T09:24:43;1.27;;;0.90;;
35961;SDS011;22044;48.298;10.008;2024-03-23T09:27:28;2.57;;;1.20;;
35961;SDS011;22044;48.298;10.008;2024-03-23T09:30:13;1.83;;;1.10;;
35961;SDS011;22044;48.298;10.008;2024-03-23T09:32:59;1.43;;;1.17;;
35961;SDS011;22044;48.298;10.008;2024-03-23T09:35:46;2.83;;;1.27;;
35961;SDS011;22044;48.298;10.008;2024-03-23T09:38:31;1.90;;;1.20;;
35961;SDS011;22044;48.298;10.008;2024-03-23T09:41:16;1.53;;;1.20;;
35961;SDS011;22044;48.298;10.008;2024-03-23T09:44:02;2.50;;;1.10;;
35961;SDS011;22044;48.298;10.008;2024-03-23T09:46:47;2.97;;;1.40;;
35961;SDS011;22044;48.298;10.008;2024-03-23T09:49:32;2.73;;;1.10;;
35961;SDS011;22044;48.298;10.008;2024-03-23T09:52:21;1.83;;;1.37;;
35961;SDS011;22044;48.298;10.008;2024-03-23T09:55:07;3.73;;;1.60;;
35961;SDS011;22044;48.298;10.008;2024-03-23T09:57:52;4.97;;;2.00;;
35961;SDS011;22044;48.298;10.008;2024-03-23T10:00:38;3.00;;;1.60;;
35961;SDS011;22044;48.298;10.008;2024-03-23T10:03:23;3.73;;;2.03;;
35961;SDS011;22044;48.298;10.008;2024-03-23T10:06:09;2.80;;;1.77;;
35961;SDS011;22044;48.298;10.008;2024-03-23T10:08:56;3.30;;;1.60;;
35961;SDS011;22044;48.298;10.008;2024-03-23T10:11:41;4.20;;;2.23;;
35961;SDS011;22044;48.298;10.008;2024-03-23T10:14:28;5.10;;;2.00;;
35961;SDS011;22044;48.298;10.008;2024-03-23T10:17:14;7.13;;;2.37;;
35961;SDS011;22044;48.298;10.008;2024-03-23T10:20:01;4.37;;;2.30;;
35961;SDS011;22044;48.298;10.008;2024-03-23T10:22:46;3.93;;;2.30;;
35961;SDS011;22044;48.298;10.008;2024-03-23T10:25:33;4.03;;;2.17;;
35961;SDS011;22044;48.298;10.008;2024-03-23T10:28:18;3.13;;;2.13;;
35961;SDS011;22044;48.298;10.008;2024-03-23T10:31:06;6.27;;;2.20;;
35961;SDS011;22044;48.298;10.008;2024-03-23T10:33:55;4.90;;;2.20;;
35961;SDS011;22044;48.298;10.008;2024-03-23T10:36:41;5.23;;;2.40;;
35961;SDS011;22044;48.298;10.008;2024-03-23T10:39:27;4.50;;;2.77;;
35961;SDS011;22044;48.298;10.008;2024-03-23T10:42:14;5.43;;;3.10;;
35961;SDS011;22044;48.298;10.008;2024-03-23T10:45:00;4.40;;;2.80;;
35961;SDS011;22044;48.298;10.008;2024-03-23T10:47:46;4.87;;;2.60;;
35961;SDS011;22044;48.298;10.008;2024-03-23T10:50:31;5.20;;;2.70;;
35961;SDS011;22044;48.298;10.008;2024-03-23T10:53:19;6.13;;;2.70;;
35961;SDS011;22044;48.298;10.008;2024-03-23T10:56:06;6.33;;;3.10;;
35961;SDS011;22044;48.298;10.008;2024-03-23T10:58:54;6.20;;;3.90;;
35961;SDS011;22044;48.298;10.008;2024-03-23T11:01:53;7.67;;;3.17;;
35961;SDS011;22044;48.298;10.008;2024-03-23T11:04:39;4.87;;;2.60;;
35961;SDS011;22044;48.298;10.008;2024-03-23T11:07:30;5.30;;;2.90;;
35961;SDS011;22044;48.298;10.008;2024-03-23T11:10:24;4.13;;;2.90;;
35961;SDS011;22044;48.298;10.008;2024-03-23T11:13:21;6.13;;;2.60;;
35961;SDS011;22044;48.298;10.008;2024-03-23T11:16:22;7.63;;;3.27;;
35961;SDS011;22044;48.298;10.008;2024-03-23T11:22:39;7.93;;;3.53;;
35961;SDS011;22044;48.298;10.008;2024-03-23T11:25:30;4.60;;;2.97;;
35961;SDS011;22044;48.298;10.008;2024-03-23T11:28:14;5.77;;;2.90;;
35961;SDS011;22044;48.298;10.008;2024-03-23T11:31:01;6.00;;;3.40;;
35961;SDS011;22044;48.298;10.008;2024-03-23T11:34:03;10.97;;;3.10;;
35961;SDS011;22044;48.298;10.008;2024-03-23T11:36:50;5.63;;;3.00;;
35961;SDS011;22044;48.298;10.008;2024-03-23T11:39:47;7.97;;;3.53;;
35961;SDS011;22044;48.298;10.008;2024-03-23T11:42:33;7.70;;;3.23;;
35961;SDS011;22044;48.298;10.008;2024-03-23T11:45:19;4.97;;;3.20;;
35961;SDS011;22044;48.298;10.008;2024-03-23T11:48:07;6.37;;;3.40;;
35961;SDS011;22044;48.298;10.008;2024-03-23T11:50:56;8.10;;;3.63;;
35961;SDS011;22044;48.298;10.008;2024-03-23T11:53:42;8.27;;;2.80;;
35961;SDS011;22044;48.298;10.008;2024-03-23T11:56:27;6.07;;;2.90;;
35961;SDS011;22044;48.298;10.008;2024-03-23T11:59:12;4.57;;;3.07;;
35961;SDS011;22044;48.298;10.008;2024-03-23T12:02:14;9.63;;;3.23;;
35961;SDS011;22044;48.298;10.008;2024-03-23T12:05:13;7.53;;;3.37;;
35961;SDS011;22044;48.298;10.008;2024-03-23T12:08:21;7.83;;;3.10;;
35961;SDS011;22044;48.298;10.008;2024-03-23T12:11:10;6.23;;;1.80;;
35961;SDS011;22044;48.298;10.008;2024-03-23T12:13:55;2.00;;;1.47;;
35961;SDS011;22044;48.298;10.008;2024-03-23T12:16:45;2.97;;;1.50;;
35961;SDS011;22044;48.298;10.008;2024-03-23T12:19:30;5.00;;;2.00;;
35961;SDS011;22044;48.298;10.008;2024-03-23T12:22:15;4.73;;;1.77;;
35961;SDS011;22044;48.298;10.008;2024-03-23T12:25:06;8.80;;;1.80;;
35961;SDS011;22044;48.298;10.008;2024-03-23T12:27:51;6.00;;;1.83;;
35961;SDS011;22044;48.298;10.008;2024-03-23T12:30:38;3.13;;;1.60;;
35961;SDS011;22044;48.298;10.008;2024-03-23T12:33:24;6.53;;;1.70;;
35961;SDS011;22044;48.298;10.008;2024-03-23T12:36:09;5.53;;;2.10;;
35961;SDS011;22044;48.298;10.008;2024-03-23T12:38:54;5.57;;;2.23;;
35961;SDS011;22044;48.298;10.008;2024-03-23T12:41:41;4.57;;;1.80;;
35961;SDS011;22044;48.298;10.008;2024-03-23T12:44:26;3.23;;;1.70;;
35961;SDS011;22044;48.298;10.008;2024-03-23T12:47:12;7.10;;;1.87;;
35961;SDS011;22044;48.298;10.008;2024-03-23T12:49:57;7.90;;;2.00;;
35961;SDS011;22044;48.298;10.008;2024-03-23T12:52:42;7.53;;;2.43;;
35961;SDS011;22044;48.298;10.008;2024-03-23T12:55:27;4.70;;;2.00;;
35961;SDS011;22044;48.298;10.008;2024-03-23T12:58:14;5.27;;;2.20;;
35961;SDS011;22044;48.298;10.008;2024-03-23T13:00:58;3.53;;;1.80;;
35961;SDS011;22044;48.298;10.008;2024-03-23T13:03:45;5.70;;;1.50;;
35961;SDS011;22044;48.298;10.008;2024-03-23T13:06:30;4.07;;;2.37;;
35961;SDS011;22044;48.298;10.008;2024-03-23T13:09:17;4.30;;;1.90;;
35961;SDS011;22044;48.298;10.008;2024-03-23T13:12:02;5.73;;;2.33;;
35961;SDS011;22044;48.298;10.008;2024-03-23T13:14:50;5.97;;;2.10;;
35961;SDS011;22044;48.298;10.008;2024-03-23T13:17:34;6.13;;;2.30;;
35961;SDS011;22044;48.298;10.008;2024-03-23T13:20:20;10.70;;;2.50;;
35961;SDS011;22044;48.298;10.008;2024-03-23T13:23:05;7.63;;;2.57;;
35961;SDS011;22044;48.298;10.008;2024-03-23T13:25:50;7.33;;;2.23;;
35961;SDS011;22044;48.298;10.008;2024-03-23T13:28:36;8.73;;;2.80;;
35961;SDS011;22044;48.298;10.008;2024-03-23T13:31:23;8.50;;;2.50;;
35961;SDS011;22044;48.298;10.008;2024-03-23T13:34:08;3.93;;;2.20;;
35961;SDS011;22044;48.298;10.008;2024-03-23T13:36:54;6.07;;;2.50;;
35961;SDS011;22044;48.298;10.008;2024-03-23T13:39:40;6.77;;;2.43;;
35961;SDS011;22044;48.298;10.008;2024-03-23T13:42:25;6.57;;;2.27;;
35961;SDS011;22044;48.298;10.008;2024-03-23T13:45:11;4.07;;;2.43;;
35961;SDS011;22044;48.298;10.008;2024-03-23T13:47:57;4.97;;;2.40;;
35961;SDS011;22044;48.298;10.008;2024-03-23T13:50:43;6.47;;;2.50;;
35961;SDS011;22044;48.298;10.008;2024-03-23T13:53:27;8.13;;;2.20;;
35961;SDS011;22044;48.298;10.008;2024-03-23T13:56:13;7.43;;;2.50;;
35961;SDS011;22044;48.298;10.008;2024-03-23T13:58:58;4.10;;;2.40;;
35961;SDS011;22044;48.298;10.008;2024-03-23T14:01:44;6.43;;;2.87;;
35961;SDS011;22044;48.298;10.008;2024-03-23T14:04:31;4.23;;;2.63;;
35961;SDS011;22044;48.298;10.008;2024-03-23T14:07:16;6.97;;;2.97;;
35961;SDS011;22044;48.298;10.008;2024-03-23T14:10:02;5.33;;;2.70;;
35961;SDS011;22044;48.298;10.008;2024-03-23T14:12:48;7.57;;;2.70;;
35961;SDS011;22044;48.298;10.008;2024-03-23T14:15:33;5.47;;;2.80;;
35961;SDS011;22044;48.298;10.008;2024-03-23T14:18:20;5.47;;;2.60;;
35961;SDS011;22044;48.298;10.008;2024-03-23T14:21:07;6.77;;;2.27;;
35961;SDS011;22044;48.298;10.008;2024-03-23T14:23:54;4.57;;;2.20;;
35961;SDS011;22044;48.298;10.008;2024-03-23T14:26:39;4.10;;;2.30;;
35961;SDS011;22044;48.298;10.008;2024-03-23T14:29:25;5.23;;;2.57;;
35961;SDS011;22044;48.298;10.008;2024-03-23T14:32:11;4.60;;;2.20;;
35961;SDS011;22044;48.298;10.008;2024-03-23T14:34:56;5.00;;;2.10;;
35961;SDS011;22044;48.298;10.008;2024-03-23T14:37:43;6.40;;;2.90;;
35961;SDS011;22044;48.298;10.008;2024-03-23T14:40:27;4.43;;;2.13;;
35961;SDS011;22044;48.298;10.008;2024-03-23T14:43:13;5.80;;;2.30;;
35961;SDS011;22044;48.298;10.008;2024-03-23T14:46:09;4.23;;;1.80;;
35961;SDS011;22044;48.298;10.008;2024-03-23T14:48:55;4.83;;;2.33;;
35961;SDS011;22044;48.298;10.008;2024-03-23T14:51:41;3.57;;;1.73;;
35961;SDS011;22044;48.298;10.008;2024-03-23T14:54:27;4.40;;;1.73;;
35961;SDS011;22044;48.298;10.008;2024-03-23T14:57:12;4.00;;;2.00;;
35961;SDS011;22044;48.298;10.008;2024-03-23T14:59:57;3.43;;;1.80;;
35961;SDS011;22044;48.298;10.008;2024-03-23T15:02:42;5.53;;;2.10;;
35961;SDS011;22044;48.298;10.008;2024-03-23T15:05:29;3.47;;;1.60;;
35961;SDS011;22044;48.298;10.008;2024-03-23T15:08:14;2.83;;;1.60;;
35961;SDS011;22044;48.298;10.008;2024-03-23T15:11:01;5.47;;;2.03;;
35961;SDS011;22044;48.298;10.008;2024-03-23T15:13:49;4.53;;;1.83;;
35961;SDS011;22044;48.298;10.008;2024-03-23T15:16:35;3.60;;;1.60;;
35961;SDS011;22044;48.298;10.008;2024-03-23T15:19:19;3.20;;;1.57;;
35961;SDS011;22044;48.298;10.008;2024-03-23T15:22:05;3.33;;;1.50;;
35961;SDS011;22044;48.298;10.008;2024-03-23T15:24:50;5.30;;;1.80;;
35961;SDS011;22044;48.298;10.008;2024-03-23T15:27:37;3.37;;;1.50;;
35961;SDS011;22044;48.298;10.008;2024-03-23T15:30:22;4.03;;;1.63;;
35961;SDS011;22044;48.298;10.008;2024-03-23T15:33:08;4.80;;;1.43;;
35961;SDS011;22044;48.298;10.008;2024-03-23T15:35:53;6.70;;;1.40;;
35961;SDS011;22044;48.298;10.008;2024-03-23T15:38:39;2.73;;;1.10;;
35961;SDS011;22044;48.298;10.008;2024-03-23T15:41:23;3.77;;;1.40;;
35961;SDS011;22044;48.298;10.008;2024-03-23T15:44:10;5.67;;;1.53;;
35961;SDS011;22044;48.298;10.008;2024-03-23T15:46:55;5.17;;;1.40;;
35961;SDS011;22044;48.298;10.008;2024-03-23T15:49:41;2.13;;;1.27;;
35961;SDS011;22044;48.298;10.008;2024-03-23T15:52:27;4.43;;;1.67;;
35961;SDS011;22044;48.298;10.008;2024-03-23T15:55:13;3.07;;;1.30;;
35961;SDS011;22044;48.298;10.008;2024-03-23T15:57:57;3.00;;;1.57;;
35961;SDS011;22044;48.298;10.008;2024-03-23T16:00:44;3.47;;;1.30;;
35961;SDS011;22044;48.298;10.008;2024-03-23T16:03:29;5.80;;;1.90;;
35961;SDS011;22044;48.298;10.008;2024-03-23T16:06:16;3.93;;;1.73;;
35961;SDS011;22044;48.298;10.008;2024-03-23T16:09:01;7.77;;;1.40;;
35961;SDS011;22044;48.298;10.008;2024-03-23T16:11:46;3.87;;;1.30;;
35961;SDS011;22044;48.298;10.008;2024-03-23T16:14:31;3.77;;;1.27;;
35961;SDS011;22044;48.298;10.008;2024-03-23T16:17:21;2.10;;;1.10;;
35961;SDS011;22044;48.298;10.008;2024-03-23T16:20:06;1.67;;;1.20;;
35961;SDS011;22044;48.298;10.008;2024-03-23T16:22:53;5.23;;;1.80;;
35961;SDS011;22044;48.298;10.008;2024-03-23T16:25:45;2.07;;;1.10;;
35961;SDS011;22044;48.298;10.008;2024-03-23T16:28:33;3.40;;;1.30;;
35961;SDS011;22044;48.298;10.008;2024-03-23T16:31:20;4.80;;;2.93;;
35961;SDS011;22044;48.298;10.008;2024-03-23T16:34:06;1.57;;;1.40;;
35961;SDS011;22044;48.298;10.008;2024-03-23T16:36:52;2.20;;;1.20;;
35961;SDS011;22044;48.298;10.008;2024-03-23T16:39:36;1.63;;;1.27;;
35961;SDS011;22044;48.298;10.008;2024-03-23T16:42:22;1.57;;;1.20;;
35961;SDS011;22044;48.298;10.008;2024-03-23T16:45:07;1.40;;;1.20;;
35961;SDS011;22044;48.298;10.008;2024-03-23T16:47:53;3.37;;;1.20;;
35961;SDS011;22044;48.298;10.008;2024-03-23T16:50:39;6.10;;;3.50;;
35961;SDS011;22044;48.298;10.008;2024-03-23T16:53:26;3.10;;;1.50;;
35961;SDS011;22044;48.298;10.008;2024-03-23T16:56:14;3.50;;;1.37;;
35961;SDS011;22044;48.298;10.008;2024-03-23T16:58:59;5.10;;;1.53;;
35961;SDS011;22044;48.298;10.008;2024-03-23T17:01:44;3.73;;;1.40;;
35961;SDS011;22044;48.298;10.008;2024-03-23T17:04:29;2.07;;;1.20;;
35961;SDS011;22044;48.298;10.008;2024-03-23T17:07:16;3.53;;;0.90;;
35961;SDS011;22044;48.298;10.008;2024-03-23T17:10:01;3.53;;;1.07;;
35961;SDS011;22044;48.298;10.008;2024-03-23T17:12:46;1.93;;;0.90;;
35961;SDS011;22044;48.298;10.008;2024-03-23T17:15:31;4.27;;;1.20;;
35961;SDS011;22044;48.298;10.008;2024-03-23T17:18:17;6.00;;;1.70;;
35961;SDS011;22044;48.298;10.008;2024-03-23T17:21:02;2.77;;;1.50;;
35961;SDS011;22044;48.298;10.008;2024-03-23T17:23:50;2.33;;;1.53;;